sensor_id;sensor_type;location;lat;lon;timestamp;temperature;humidity
39347;DHT22;26262;49.836;6.632;2023-02-28T00:00:00;-0.90;99.90
39347;DHT22;26262;49.836;6.632;2023-02-28T00:02:26;-1.10;99.90
39347;DHT22;26262;49.836;6.632;2023-02-28T00:04:51;-1.00;99.90
39347;DHT22;26262;49.836;6.632;2023-02-28T00:07:26;-0.90;99.90
39347;DHT22;26262;49.836;6.632;2023-02-28T00:09:53;-1.00;99.90
39347;DHT22;26262;49.836;6.632;2023-02-28T00:12:18;-1.00;99.90
39347;DHT22;26262;49.836;6.632;2023-02-28T00:14:44;-0.90;99.90
39347;DHT22;26262;49.836;6.632;2023-02-28T00:17:09;-1.20;99.90
39347;DHT22;26262;49.836;6.632;2023-02-28T00:19:34;-1.20;99.90
39347;DHT22;26262;49.836;6.632;2023-02-28T00:22:00;-1.10;99.90
39347;DHT22;26262;49.836;6.632;2023-02-28T00:24:25;-1.30;99.90
39347;DHT22;26262;49.836;6.632;2023-02-28T00:26:51;-1.10;99.90
39347;DHT22;26262;49.836;6.632;2023-02-28T00:29:16;-1.10;99.90
39347;DHT22;26262;49.836;6.632;2023-02-28T00:31:42;-1.10;99.90
39347;DHT22;26262;49.836;6.632;2023-02-28T00:34:07;-1.10;99.90
39347;DHT22;26262;49.836;6.632;2023-02-28T00:36:33;-1.50;99.90
39347;DHT22;26262;49.836;6.632;2023-02-28T00:38:58;-1.40;99.90
39347;DHT22;26262;49.836;6.632;2023-02-28T00:41:23;-1.30;99.90
39347;DHT22;26262;49.836;6.632;2023-02-28T00:43:49;-1.40;99.90
39347;DHT22;26262;49.836;6.632;2023-02-28T00:46:14;-1.30;99.90
39347;DHT22;26262;49.836;6.632;2023-02-28T00:48:40;-1.40;99.90
39347;DHT22;26262;49.836;6.632;2023-02-28T00:51:05;-1.40;99.90
39347;DHT22;26262;49.836;6.632;2023-02-28T00:53:31;-1.40;99.90
39347;DHT22;26262;49.836;6.632;2023-02-28T00:55:57;-1.40;99.90
39347;DHT22;26262;49.836;6.632;2023-02-28T00:58:23;-1.50;99.90
39347;DHT22;26262;49.836;6.632;2023-02-28T01:00:49;-1.40;99.90
39347;DHT22;26262;49.836;6.632;2023-02-28T01:03:18;-1.50;99.90
39347;DHT22;26262;49.836;6.632;2023-02-28T01:05:44;-1.70;99.90
39347;DHT22;26262;49.836;6.632;2023-02-28T01:08:09;-1.60;99.90
39347;DHT22;26262;49.836;6.632;2023-02-28T01:10:34;-1.50;99.90
39347;DHT22;26262;49.836;6.632;2023-02-28T01:13:02;-1.60;99.90
39347;DHT22;26262;49.836;6.632;2023-02-28T01:15:27;-1.50;99.90
39347;DHT22;26262;49.836;6.632;2023-02-28T01:17:53;-1.50;99.90
39347;DHT22;26262;49.836;6.632;2023-02-28T01:20:18;-1.50;99.90
39347;DHT22;26262;49.836;6.632;2023-02-28T01:22:44;-1.60;99.90
39347;DHT22;26262;49.836;6.632;2023-02-28T01:25:09;-1.80;99.90
39347;DHT22;26262;49.836;6.632;2023-02-28T01:27:35;-1.80;99.90
39347;DHT22;26262;49.836;6.632;2023-02-28T01:30:01;-1.80;99.90
39347;DHT22;26262;49.836;6.632;2023-02-28T01:32:26;-1.90;99.90
39347;DHT22;26262;49.836;6.632;2023-02-28T01:34:52;-1.90;99.90
39347;DHT22;26262;49.836;6.632;2023-02-28T01:37:17;-1.80;99.90
39347;DHT22;26262;49.836;6.632;2023-02-28T01:39:43;-1.80;99.90
39347;DHT22;26262;49.836;6.632;2023-02-28T01:42:09;-2.10;99.90
39347;DHT22;26262;49.836;6.632;2023-02-28T01:47:18;-2.00;99.90
39347;DHT22;26262;49.836;6.632;2023-02-28T01:49:44;-1.90;99.90
39347;DHT22;26262;49.836;6.632;2023-02-28T01:52:10;-1.90;99.90
39347;DHT22;26262;49.836;6.632;2023-02-28T01:54:43;-1.90;99.90
39347;DHT22;26262;49.836;6.632;2023-02-28T01:57:11;-2.00;99.90
39347;DHT22;26262;49.836;6.632;2023-02-28T01:59:42;-1.90;99.90
39347;DHT22;26262;49.836;6.632;2023-02-28T02:02:12;-1.90;99.90
39347;DHT22;26262;49.836;6.632;2023-02-28T02:04:46;-1.90;99.90
39347;DHT22;26262;49.836;6.632;2023-02-28T02:07:15;-1.90;99.90
39347;DHT22;26262;49.836;6.632;2023-02-28T02:09:41;-2.20;99.90
39347;DHT22;26262;49.836;6.632;2023-02-28T02:12:11;-2.30;99.90
39347;DHT22;26262;49.836;6.632;2023-02-28T02:14:43;-2.30;99.90
39347;DHT22;26262;49.836;6.632;2023-02-28T02:17:19;-2.10;99.90
39347;DHT22;26262;49.836;6.632;2023-02-28T02:19:52;-2.10;99.90
39347;DHT22;26262;49.836;6.632;2023-02-28T02:22:34;-2.40;99.90
39347;DHT22;26262;49.836;6.632;2023-02-28T02:25:06;-2.50;99.90
39347;DHT22;26262;49.836;6.632;2023-02-28T02:27:44;-2.50;99.90
39347;DHT22;26262;49.836;6.632;2023-02-28T02:30:17;-2.40;99.90
39347;DHT22;26262;49.836;6.632;2023-02-28T02:33:02;-2.30;99.90
39347;DHT22;26262;49.836;6.632;2023-02-28T02:40:24;-2.30;99.90
39347;DHT22;26262;49.836;6.632;2023-02-28T02:42:51;-2.30;99.90
39347;DHT22;26262;49.836;6.632;2023-02-28T02:45:21;-2.50;99.90
39347;DHT22;26262;49.836;6.632;2023-02-28T02:47:47;-2.40;99.90
39347;DHT22;26262;49.836;6.632;2023-02-28T02:50:15;-2.40;99.90
39347;DHT22;26262;49.836;6.632;2023-02-28T02:52:46;-2.30;99.90
39347;DHT22;26262;49.836;6.632;2023-02-28T02:55:13;-2.40;99.90
39347;DHT22;26262;49.836;6.632;2023-02-28T02:57:45;-2.30;99.90
39347;DHT22;26262;49.836;6.632;2023-02-28T03:00:11;-2.30;99.90
39347;DHT22;26262;49.836;6.632;2023-02-28T03:02:37;-2.20;99.90
39347;DHT22;26262;49.836;6.632;2023-02-28T03:05:08;-2.30;99.90
39347;DHT22;26262;49.836;6.632;2023-02-28T03:07:37;-2.20;99.90
39347;DHT22;26262;49.836;6.632;2023-02-28T03:10:02;-2.30;99.90
39347;DHT22;26262;49.836;6.632;2023-02-28T03:12:40;-2.30;99.90
39347;DHT22;26262;49.836;6.632;2023-02-28T03:15:16;-2.40;99.90
39347;DHT22;26262;49.836;6.632;2023-02-28T03:17:47;-2.60;99.90
39347;DHT22;26262;49.836;6.632;2023-02-28T03:22:45;-2.60;99.90
39347;DHT22;26262;49.836;6.632;2023-02-28T03:25:27;-2.50;99.90
39347;DHT22;26262;49.836;6.632;2023-02-28T03:30:45;-2.50;99.90
39347;DHT22;26262;49.836;6.632;2023-02-28T03:33:17;-2.40;99.90
39347;DHT22;26262;49.836;6.632;2023-02-28T03:35:47;-2.50;99.90
39347;DHT22;26262;49.836;6.632;2023-02-28T03:38:15;-2.80;99.90
39347;DHT22;26262;49.836;6.632;2023-02-28T03:40:43;-2.70;99.90
39347;DHT22;26262;49.836;6.632;2023-02-28T03:43:12;-3.00;99.90
39347;DHT22;26262;49.836;6.632;2023-02-28T03:45:37;-3.10;99.90
39347;DHT22;26262;49.836;6.632;2023-02-28T03:50:34;-3.10;99.90
39347;DHT22;26262;49.836;6.632;2023-02-28T03:53:02;-3.00;99.90
39347;DHT22;26262;49.836;6.632;2023-02-28T03:55:34;-3.00;99.90
39347;DHT22;26262;49.836;6.632;2023-02-28T04:02:53;-2.70;99.90
39347;DHT22;26262;49.836;6.632;2023-02-28T04:05:19;-2.70;99.90
39347;DHT22;26262;49.836;6.632;2023-02-28T04:07:45;-2.70;99.90
39347;DHT22;26262;49.836;6.632;2023-02-28T04:10:11;-2.60;99.90
39347;DHT22;26262;49.836;6.632;2023-02-28T04:12:37;-2.60;99.90
39347;DHT22;26262;49.836;6.632;2023-02-28T04:15:02;-2.50;99.90
39347;DHT22;26262;49.836;6.632;2023-02-28T04:17:28;-2.50;99.90
39347;DHT22;26262;49.836;6.632;2023-02-28T04:19:54;-2.40;99.90
39347;DHT22;26262;49.836;6.632;2023-02-28T04:22:21;-2.40;99.90
39347;DHT22;26262;49.836;6.632;2023-02-28T04:24:47;-2.40;99.90
39347;DHT22;26262;49.836;6.632;2023-02-28T04:27:12;-2.50;99.90
39347;DHT22;26262;49.836;6.632;2023-02-28T04:29:38;-2.50;99.90
39347;DHT22;26262;49.836;6.632;2023-02-28T04:32:03;-2.50;99.90
39347;DHT22;26262;49.836;6.632;2023-02-28T04:34:30;-2.70;99.90
39347;DHT22;26262;49.836;6.632;2023-02-28T04:36:55;-2.80;99.90
39347;DHT22;26262;49.836;6.632;2023-02-28T04:39:22;-3.00;99.90
39347;DHT22;26262;49.836;6.632;2023-02-28T04:41:48;-3.20;99.90
39347;DHT22;26262;49.836;6.632;2023-02-28T04:44:13;-3.50;99.90
39347;DHT22;26262;49.836;6.632;2023-02-28T04:46:39;-3.40;99.90
39347;DHT22;26262;49.836;6.632;2023-02-28T04:49:05;-3.60;99.90
39347;DHT22;26262;49.836;6.632;2023-02-28T04:51:30;-3.50;99.90
39347;DHT22;26262;49.836;6.632;2023-02-28T04:53:56;-3.40;99.90
39347;DHT22;26262;49.836;6.632;2023-02-28T04:56:21;-3.50;99.90
39347;DHT22;26262;49.836;6.632;2023-02-28T04:58:47;-3.50;99.90
39347;DHT22;26262;49.836;6.632;2023-02-28T05:01:20;-3.50;99.90
39347;DHT22;26262;49.836;6.632;2023-02-28T05:03:46;-3.50;99.90
39347;DHT22;26262;49.836;6.632;2023-02-28T05:06:12;-3.60;99.90
39347;DHT22;26262;49.836;6.632;2023-02-28T05:08:38;-3.50;99.90
39347;DHT22;26262;49.836;6.632;2023-02-28T05:11:03;-3.60;99.90
39347;DHT22;26262;49.836;6.632;2023-02-28T05:13:29;-3.60;99.90
39347;DHT22;26262;49.836;6.632;2023-02-28T05:15:55;-3.60;99.90
39347;DHT22;26262;49.836;6.632;2023-02-28T05:18:20;-3.50;99.90
39347;DHT22;26262;49.836;6.632;2023-02-28T05:20:46;-3.40;99.90
39347;DHT22;26262;49.836;6.632;2023-02-28T05:23:12;-3.30;99.90
39347;DHT22;26262;49.836;6.632;2023-02-28T05:25:38;-3.20;99.90
39347;DHT22;26262;49.836;6.632;2023-02-28T05:28:03;-3.10;99.90
39347;DHT22;26262;49.836;6.632;2023-02-28T05:30:29;-3.00;99.90
39347;DHT22;26262;49.836;6.632;2023-02-28T05:32:55;-2.90;99.90
39347;DHT22;26262;49.836;6.632;2023-02-28T05:35:20;-2.80;99.90
39347;DHT22;26262;49.836;6.632;2023-02-28T05:37:46;-2.70;99.90
39347;DHT22;26262;49.836;6.632;2023-02-28T05:40:11;-2.70;99.90
39347;DHT22;26262;49.836;6.632;2023-02-28T05:42:37;-2.70;99.90
39347;DHT22;26262;49.836;6.632;2023-02-28T05:45:03;-2.60;99.90
39347;DHT22;26262;49.836;6.632;2023-02-28T05:47:29;-2.50;99.90
39347;DHT22;26262;49.836;6.632;2023-02-28T05:49:54;-2.40;99.90
39347;DHT22;26262;49.836;6.632;2023-02-28T05:52:20;-2.40;99.90
39347;DHT22;26262;49.836;6.632;2023-02-28T05:54:46;-2.40;99.90
39347;DHT22;26262;49.836;6.632;2023-02-28T05:57:11;-2.40;99.90
39347;DHT22;26262;49.836;6.632;2023-02-28T05:59:37;-2.30;99.90
39347;DHT22;26262;49.836;6.632;2023-02-28T06:02:12;-2.30;99.90
39347;DHT22;26262;49.836;6.632;2023-02-28T06:04:38;-2.30;99.90
39347;DHT22;26262;49.836;6.632;2023-02-28T06:07:04;-2.30;99.90
39347;DHT22;26262;49.836;6.632;2023-02-28T06:09:29;-2.20;99.90
39347;DHT22;26262;49.836;6.632;2023-02-28T06:11:57;-2.20;99.90
39347;DHT22;26262;49.836;6.632;2023-02-28T06:14:22;-2.20;99.90
39347;DHT22;26262;49.836;6.632;2023-02-28T06:16:47;-2.30;99.90
39347;DHT22;26262;49.836;6.632;2023-02-28T06:19:13;-2.20;99.90
39347;DHT22;26262;49.836;6.632;2023-02-28T06:21:38;-2.20;99.90
39347;DHT22;26262;49.836;6.632;2023-02-28T06:24:04;-2.20;99.90
39347;DHT22;26262;49.836;6.632;2023-02-28T06:26:30;-2.20;99.90
39347;DHT22;26262;49.836;6.632;2023-02-28T06:28:55;-2.10;99.90
39347;DHT22;26262;49.836;6.632;2023-02-28T06:31:21;-2.10;99.90
39347;DHT22;26262;49.836;6.632;2023-02-28T06:33:47;-2.20;99.90
39347;DHT22;26262;49.836;6.632;2023-02-28T06:36:13;-2.10;99.90
39347;DHT22;26262;49.836;6.632;2023-02-28T06:38:39;-2.10;99.90
39347;DHT22;26262;49.836;6.632;2023-02-28T06:41:05;-2.10;99.90
39347;DHT22;26262;49.836;6.632;2023-02-28T06:43:32;-2.30;99.90
39347;DHT22;26262;49.836;6.632;2023-02-28T06:45:59;-2.30;99.90
39347;DHT22;26262;49.836;6.632;2023-02-28T06:48:26;-2.30;99.90
39347;DHT22;26262;49.836;6.632;2023-02-28T06:50:51;-2.30;99.90
39347;DHT22;26262;49.836;6.632;2023-02-28T06:53:17;-2.30;99.90
39347;DHT22;26262;49.836;6.632;2023-02-28T06:55:42;-2.30;99.90
39347;DHT22;26262;49.836;6.632;2023-02-28T06:58:07;-2.20;99.90
39347;DHT22;26262;49.836;6.632;2023-02-28T07:00:43;-2.20;99.90
39347;DHT22;26262;49.836;6.632;2023-02-28T07:03:09;-2.10;99.90
39347;DHT22;26262;49.836;6.632;2023-02-28T07:05:35;-2.10;99.90
39347;DHT22;26262;49.836;6.632;2023-02-28T07:08:01;-2.00;99.90
39347;DHT22;26262;49.836;6.632;2023-02-28T07:10:26;-1.90;99.90
39347;DHT22;26262;49.836;6.632;2023-02-28T07:12:52;-1.90;99.90
39347;DHT22;26262;49.836;6.632;2023-02-28T07:15:17;-1.80;99.90
39347;DHT22;26262;49.836;6.632;2023-02-28T07:17:43;-1.80;99.90
39347;DHT22;26262;49.836;6.632;2023-02-28T07:20:08;-1.70;99.90
39347;DHT22;26262;49.836;6.632;2023-02-28T07:22:34;-1.60;99.90
39347;DHT22;26262;49.836;6.632;2023-02-28T07:24:59;-1.60;99.90
39347;DHT22;26262;49.836;6.632;2023-02-28T07:27:25;-1.50;99.90
39347;DHT22;26262;49.836;6.632;2023-02-28T07:29:51;-1.50;99.90
39347;DHT22;26262;49.836;6.632;2023-02-28T07:32:17;-1.50;99.90
39347;DHT22;26262;49.836;6.632;2023-02-28T07:34:43;-1.40;99.90
39347;DHT22;26262;49.836;6.632;2023-02-28T07:37:09;-1.40;99.90
39347;DHT22;26262;49.836;6.632;2023-02-28T07:39:34;-1.30;99.90
39347;DHT22;26262;49.836;6.632;2023-02-28T07:42:00;-1.20;99.90
39347;DHT22;26262;49.836;6.632;2023-02-28T07:44:27;-1.10;99.90
39347;DHT22;26262;49.836;6.632;2023-02-28T07:46:52;-1.00;99.90
39347;DHT22;26262;49.836;6.632;2023-02-28T07:49:18;-0.90;99.90
39347;DHT22;26262;49.836;6.632;2023-02-28T07:51:43;-0.80;99.90
39347;DHT22;26262;49.836;6.632;2023-02-28T07:54:09;-0.70;99.90
39347;DHT22;26262;49.836;6.632;2023-02-28T07:56:34;-0.70;99.90
39347;DHT22;26262;49.836;6.632;2023-02-28T07:59:00;-0.60;99.90
39347;DHT22;26262;49.836;6.632;2023-02-28T08:01:26;-0.60;99.90
39347;DHT22;26262;49.836;6.632;2023-02-28T08:03:52;-0.50;99.90
39347;DHT22;26262;49.836;6.632;2023-02-28T08:06:19;-0.50;99.90
39347;DHT22;26262;49.836;6.632;2023-02-28T08:08:45;-0.40;99.90
39347;DHT22;26262;49.836;6.632;2023-02-28T08:11:11;-0.30;99.90
39347;DHT22;26262;49.836;6.632;2023-02-28T08:13:36;-0.20;99.90
39347;DHT22;26262;49.836;6.632;2023-02-28T08:16:02;-0.20;99.90
39347;DHT22;26262;49.836;6.632;2023-02-28T08:18:28;-0.10;99.90
39347;DHT22;26262;49.836;6.632;2023-02-28T08:20:53;0.00;99.90
39347;DHT22;26262;49.836;6.632;2023-02-28T08:23:18;0.00;99.90
39347;DHT22;26262;49.836;6.632;2023-02-28T08:25:44;0.10;99.90
39347;DHT22;26262;49.836;6.632;2023-02-28T08:28:09;0.10;99.90
39347;DHT22;26262;49.836;6.632;2023-02-28T08:30:35;0.20;99.90
39347;DHT22;26262;49.836;6.632;2023-02-28T08:33:00;0.30;99.90
39347;DHT22;26262;49.836;6.632;2023-02-28T08:35:27;0.40;99.90
39347;DHT22;26262;49.836;6.632;2023-02-28T08:37:52;0.50;99.90
39347;DHT22;26262;49.836;6.632;2023-02-28T08:40:17;0.60;99.90
39347;DHT22;26262;49.836;6.632;2023-02-28T08:42:44;0.70;99.90
39347;DHT22;26262;49.836;6.632;2023-02-28T08:45:10;0.80;99.90
39347;DHT22;26262;49.836;6.632;2023-02-28T08:47:35;0.90;99.90
39347;DHT22;26262;49.836;6.632;2023-02-28T08:50:01;0.90;99.90
39347;DHT22;26262;49.836;6.632;2023-02-28T08:52:26;1.10;99.90
39347;DHT22;26262;49.836;6.632;2023-02-28T08:54:52;1.20;99.90
39347;DHT22;26262;49.836;6.632;2023-02-28T08:57:17;1.20;99.90
39347;DHT22;26262;49.836;6.632;2023-02-28T08:59:43;1.40;99.90
39347;DHT22;26262;49.836;6.632;2023-02-28T09:02:09;1.50;99.90
39347;DHT22;26262;49.836;6.632;2023-02-28T09:04:36;1.60;99.90
39347;DHT22;26262;49.836;6.632;2023-02-28T09:07:01;1.70;99.90
39347;DHT22;26262;49.836;6.632;2023-02-28T09:09:27;1.80;99.90
39347;DHT22;26262;49.836;6.632;2023-02-28T09:11:54;1.80;99.90
39347;DHT22;26262;49.836;6.632;2023-02-28T09:14:20;1.70;99.90
39347;DHT22;26262;49.836;6.632;2023-02-28T09:16:45;1.70;99.90
39347;DHT22;26262;49.836;6.632;2023-02-28T09:19:11;1.80;99.90
39347;DHT22;26262;49.836;6.632;2023-02-28T09:21:38;1.90;99.90
39347;DHT22;26262;49.836;6.632;2023-02-28T09:24:03;1.90;99.90
39347;DHT22;26262;49.836;6.632;2023-02-28T09:26:29;1.90;99.90
39347;DHT22;26262;49.836;6.632;2023-02-28T09:28:54;1.90;99.90
39347;DHT22;26262;49.836;6.632;2023-02-28T09:31:24;2.00;99.90
39347;DHT22;26262;49.836;6.632;2023-02-28T09:33:50;2.00;99.90
39347;DHT22;26262;49.836;6.632;2023-02-28T09:36:16;2.20;99.90
39347;DHT22;26262;49.836;6.632;2023-02-28T09:38:41;2.50;99.90
39347;DHT22;26262;49.836;6.632;2023-02-28T09:41:17;2.60;99.90
39347;DHT22;26262;49.836;6.632;2023-02-28T09:43:45;2.70;99.90
39347;DHT22;26262;49.836;6.632;2023-02-28T09:46:14;2.60;99.90
39347;DHT22;26262;49.836;6.632;2023-02-28T09:48:44;2.70;99.90
39347;DHT22;26262;49.836;6.632;2023-02-28T09:51:31;2.70;99.90
39347;DHT22;26262;49.836;6.632;2023-02-28T09:53:58;2.70;99.90
39347;DHT22;26262;49.836;6.632;2023-02-28T09:56:25;2.70;99.90
39347;DHT22;26262;49.836;6.632;2023-02-28T09:59:01;2.70;99.90
39347;DHT22;26262;49.836;6.632;2023-02-28T10:01:31;2.70;99.90
39347;DHT22;26262;49.836;6.632;2023-02-28T10:04:00;2.80;99.90
39347;DHT22;26262;49.836;6.632;2023-02-28T10:06:29;3.00;99.90
39347;DHT22;26262;49.836;6.632;2023-02-28T10:09:04;2.90;99.90
39347;DHT22;26262;49.836;6.632;2023-02-28T10:11:34;2.80;99.90
39347;DHT22;26262;49.836;6.632;2023-02-28T10:14:02;2.80;99.90
39347;DHT22;26262;49.836;6.632;2023-02-28T10:16:33;2.70;99.90
39347;DHT22;26262;49.836;6.632;2023-02-28T10:19:09;2.90;99.90
39347;DHT22;26262;49.836;6.632;2023-02-28T10:21:41;3.30;99.90
39347;DHT22;26262;49.836;6.632;2023-02-28T10:24:17;3.60;99.90
39347;DHT22;26262;49.836;6.632;2023-02-28T10:26:44;3.70;99.90
39347;DHT22;26262;49.836;6.632;2023-02-28T10:29:10;3.60;99.90
39347;DHT22;26262;49.836;6.632;2023-02-28T10:31:36;3.70;99.70
39347;DHT22;26262;49.836;6.632;2023-02-28T10:34:01;3.80;99.80
39347;DHT22;26262;49.836;6.632;2023-02-28T10:36:28;3.90;99.20
39347;DHT22;26262;49.836;6.632;2023-02-28T10:38:54;4.00;98.90
39347;DHT22;26262;49.836;6.632;2023-02-28T10:41:27;3.90;98.40
39347;DHT22;26262;49.836;6.632;2023-02-28T10:43:53;3.80;98.90
39347;DHT22;26262;49.836;6.632;2023-02-28T10:46:37;3.80;99.40
39347;DHT22;26262;49.836;6.632;2023-02-28T10:49:05;4.10;99.30
39347;DHT22;26262;49.836;6.632;2023-02-28T10:51:35;4.80;98.60
39347;DHT22;26262;49.836;6.632;2023-02-28T10:54:01;5.60;98.20
39347;DHT22;26262;49.836;6.632;2023-02-28T10:56:27;6.60;96.70
39347;DHT22;26262;49.836;6.632;2023-02-28T11:01:23;6.60;93.90
39347;DHT22;26262;49.836;6.632;2023-02-28T11:03:49;6.80;94.40
39347;DHT22;26262;49.836;6.632;2023-02-28T11:06:19;6.50;94.10
39347;DHT22;26262;49.836;6.632;2023-02-28T11:08:56;6.10;94.10
39347;DHT22;26262;49.836;6.632;2023-02-28T11:11:22;5.70;94.40
39347;DHT22;26262;49.836;6.632;2023-02-28T11:13:50;5.70;94.30
39347;DHT22;26262;49.836;6.632;2023-02-28T11:16:16;5.60;94.60
39347;DHT22;26262;49.836;6.632;2023-02-28T11:21:30;5.40;94.00
39347;DHT22;26262;49.836;6.632;2023-02-28T11:24:00;5.30;93.90
39347;DHT22;26262;49.836;6.632;2023-02-28T11:26:42;5.50;94.70
39347;DHT22;26262;49.836;6.632;2023-02-28T11:29:11;5.50;94.60
39347;DHT22;26262;49.836;6.632;2023-02-28T11:31:36;5.60;94.00
39347;DHT22;26262;49.836;6.632;2023-02-28T11:34:07;5.90;94.10
39347;DHT22;26262;49.836;6.632;2023-02-28T11:36:47;6.40;94.50
39347;DHT22;26262;49.836;6.632;2023-02-28T11:39:13;6.80;93.40
39347;DHT22;26262;49.836;6.632;2023-02-28T11:41:51;6.70;91.30
39347;DHT22;26262;49.836;6.632;2023-02-28T11:46:51;6.10;91.20
39347;DHT22;26262;49.836;6.632;2023-02-28T11:51:59;5.50;92.10
39347;DHT22;26262;49.836;6.632;2023-02-28T11:56:58;5.50;91.00
39347;DHT22;26262;49.836;6.632;2023-02-28T12:02:30;5.50;90.90
39347;DHT22;26262;49.836;6.632;2023-02-28T12:04:53;5.50;90.30
39347;DHT22;26262;49.836;6.632;2023-02-28T12:10:21;5.70;91.30
39347;DHT22;26262;49.836;6.632;2023-02-28T12:13:34;6.00;90.70
39347;DHT22;26262;49.836;6.632;2023-02-28T12:15:37;6.20;90.20
39347;DHT22;26262;49.836;6.632;2023-02-28T12:23:33;6.30;88.80
39347;DHT22;26262;49.836;6.632;2023-02-28T12:26:15;6.20;89.90
39347;DHT22;26262;49.836;6.632;2023-02-28T12:28:57;6.00;89.20
39347;DHT22;26262;49.836;6.632;2023-02-28T12:31:25;5.90;89.20
39347;DHT22;26262;49.836;6.632;2023-02-28T12:33:53;6.00;90.30
39347;DHT22;26262;49.836;6.632;2023-02-28T12:36:22;6.10;89.60
39347;DHT22;26262;49.836;6.632;2023-02-28T12:39:00;6.00;88.90
39347;DHT22;26262;49.836;6.632;2023-02-28T12:41:32;5.90;89.80
39347;DHT22;26262;49.836;6.632;2023-02-28T12:46:59;5.60;89.90
39347;DHT22;26262;49.836;6.632;2023-02-28T12:49:27;5.70;90.50
39347;DHT22;26262;49.836;6.632;2023-02-28T12:51:56;5.90;90.60
39347;DHT22;26262;49.836;6.632;2023-02-28T12:57:06;6.90;90.30
39347;DHT22;26262;49.836;6.632;2023-02-28T13:10:08;10.10;83.30
39347;DHT22;26262;49.836;6.632;2023-02-28T13:12:35;10.20;78.10
39347;DHT22;26262;49.836;6.632;2023-02-28T13:15:08;10.60;80.00
39347;DHT22;26262;49.836;6.632;2023-02-28T13:17:38;10.80;78.00
39347;DHT22;26262;49.836;6.632;2023-02-28T13:20:04;11.00;76.80
39347;DHT22;26262;49.836;6.632;2023-02-28T13:22:46;11.30;77.10
39347;DHT22;26262;49.836;6.632;2023-02-28T13:27:46;11.80;72.30
39347;DHT22;26262;49.836;6.632;2023-02-28T13:35:43;11.60;72.10
39347;DHT22;26262;49.836;6.632;2023-02-28T13:38:17;11.50;71.80
39347;DHT22;26262;49.836;6.632;2023-02-28T13:40:46;11.50;72.10
39347;DHT22;26262;49.836;6.632;2023-02-28T13:43:12;11.40;70.60
39347;DHT22;26262;49.836;6.632;2023-02-28T13:45:44;11.20;70.20
39347;DHT22;26262;49.836;6.632;2023-02-28T13:48:27;11.20;72.20
39347;DHT22;26262;49.836;6.632;2023-02-28T13:50:52;11.90;71.80
39347;DHT22;26262;49.836;6.632;2023-02-28T13:53:33;12.30;70.30
39347;DHT22;26262;49.836;6.632;2023-02-28T13:56:17;12.40;69.20
39347;DHT22;26262;49.836;6.632;2023-02-28T14:06:52;11.60;69.70
39347;DHT22;26262;49.836;6.632;2023-02-28T14:11:44;11.60;68.20
39347;DHT22;26262;49.836;6.632;2023-02-28T14:14:53;11.60;68.10
39347;DHT22;26262;49.836;6.632;2023-02-28T14:16:55;11.30;67.30
39347;DHT22;26262;49.836;6.632;2023-02-28T14:19:22;11.10;70.00
39347;DHT22;26262;49.836;6.632;2023-02-28T14:24:49;11.10;68.40
39347;DHT22;26262;49.836;6.632;2023-02-28T14:27:24;11.20;69.80
39347;DHT22;26262;49.836;6.632;2023-02-28T14:35:16;11.40;68.90
39347;DHT22;26262;49.836;6.632;2023-02-28T14:37:43;11.40;68.40
39347;DHT22;26262;49.836;6.632;2023-02-28T14:40:16;11.30;66.50
39347;DHT22;26262;49.836;6.632;2023-02-28T14:42:46;10.50;68.30
39347;DHT22;26262;49.836;6.632;2023-02-28T14:45:21;10.40;69.30
39347;DHT22;26262;49.836;6.632;2023-02-28T14:47:47;10.10;69.50
39347;DHT22;26262;49.836;6.632;2023-02-28T14:50:17;9.80;70.30
39347;DHT22;26262;49.836;6.632;2023-02-28T14:52:43;9.60;69.30
39347;DHT22;26262;49.836;6.632;2023-02-28T14:55:13;9.30;71.10
39347;DHT22;26262;49.836;6.632;2023-02-28T14:57:40;9.20;72.20
39347;DHT22;26262;49.836;6.632;2023-02-28T15:02:37;9.20;72.60
39347;DHT22;26262;49.836;6.632;2023-02-28T15:07:37;9.20;73.00
39347;DHT22;26262;49.836;6.632;2023-02-28T15:10:06;9.30;72.10
39347;DHT22;26262;49.836;6.632;2023-02-28T15:12:32;8.90;70.90
39347;DHT22;26262;49.836;6.632;2023-02-28T15:14:57;8.50;71.80
39347;DHT22;26262;49.836;6.632;2023-02-28T15:17:23;8.20;72.70
39347;DHT22;26262;49.836;6.632;2023-02-28T15:19:50;8.10;74.70
39347;DHT22;26262;49.836;6.632;2023-02-28T15:22:26;7.80;73.80
39347;DHT22;26262;49.836;6.632;2023-02-28T15:24:54;7.60;74.00
39347;DHT22;26262;49.836;6.632;2023-02-28T15:27:24;7.20;74.70
39347;DHT22;26262;49.836;6.632;2023-02-28T15:29:53;6.90;74.90
39347;DHT22;26262;49.836;6.632;2023-02-28T15:32:31;6.70;76.90
39347;DHT22;26262;49.836;6.632;2023-02-28T15:34:57;6.60;78.30
39347;DHT22;26262;49.836;6.632;2023-02-28T15:37:26;6.50;77.40
39347;DHT22;26262;49.836;6.632;2023-02-28T15:39:53;6.50;78.50
39347;DHT22;26262;49.836;6.632;2023-02-28T15:42:20;6.30;78.90
39347;DHT22;26262;49.836;6.632;2023-02-28T15:44:46;6.30;78.70
39347;DHT22;26262;49.836;6.632;2023-02-28T15:47:19;6.10;79.80
39347;DHT22;26262;49.836;6.632;2023-02-28T15:49:45;6.00;78.70
39347;DHT22;26262;49.836;6.632;2023-02-28T15:52:27;6.00;80.40
39347;DHT22;26262;49.836;6.632;2023-02-28T15:54:53;6.00;81.10
39347;DHT22;26262;49.836;6.632;2023-02-28T15:57:20;5.90;79.60
39347;DHT22;26262;49.836;6.632;2023-02-28T15:59:54;5.70;78.20
39347;DHT22;26262;49.836;6.632;2023-02-28T16:02:39;5.60;79.30
39347;DHT22;26262;49.836;6.632;2023-02-28T16:07:40;5.40;80.10
39347;DHT22;26262;49.836;6.632;2023-02-28T16:10:06;5.40;80.10
39347;DHT22;26262;49.836;6.632;2023-02-28T16:12:33;5.30;81.00
39347;DHT22;26262;49.836;6.632;2023-02-28T16:15:06;5.30;80.10
39347;DHT22;26262;49.836;6.632;2023-02-28T16:17:33;5.10;81.80
39347;DHT22;26262;49.836;6.632;2023-02-28T16:19:59;5.10;81.40
39347;DHT22;26262;49.836;6.632;2023-02-28T16:22:26;5.10;81.30
39347;DHT22;26262;49.836;6.632;2023-02-28T16:24:51;5.20;82.80
39347;DHT22;26262;49.836;6.632;2023-02-28T16:27:21;5.10;82.10
39347;DHT22;26262;49.836;6.632;2023-02-28T16:29:47;5.00;81.80
39347;DHT22;26262;49.836;6.632;2023-02-28T16:32:14;5.00;81.90
39347;DHT22;26262;49.836;6.632;2023-02-28T16:34:40;4.90;83.10
39347;DHT22;26262;49.836;6.632;2023-02-28T16:37:15;4.90;83.30
39347;DHT22;26262;49.836;6.632;2023-02-28T16:39:42;4.90;82.80
39347;DHT22;26262;49.836;6.632;2023-02-28T16:42:10;4.90;83.30
39347;DHT22;26262;49.836;6.632;2023-02-28T16:44:36;4.80;82.50
39347;DHT22;26262;49.836;6.632;2023-02-28T16:47:02;4.80;83.30
39347;DHT22;26262;49.836;6.632;2023-02-28T16:49:28;4.80;84.60
39347;DHT22;26262;49.836;6.632;2023-02-28T16:51:53;4.70;84.20
39347;DHT22;26262;49.836;6.632;2023-02-28T16:54:19;4.70;84.90
39347;DHT22;26262;49.836;6.632;2023-02-28T16:56:45;4.70;85.00
39347;DHT22;26262;49.836;6.632;2023-02-28T16:59:12;4.80;84.20
39347;DHT22;26262;49.836;6.632;2023-02-28T17:01:37;4.70;83.80
39347;DHT22;26262;49.836;6.632;2023-02-28T17:04:03;4.50;84.70
39347;DHT22;26262;49.836;6.632;2023-02-28T17:06:29;4.50;84.80
39347;DHT22;26262;49.836;6.632;2023-02-28T17:08:55;4.50;87.00
39347;DHT22;26262;49.836;6.632;2023-02-28T17:11:21;4.50;86.20
39347;DHT22;26262;49.836;6.632;2023-02-28T17:13:47;4.40;86.40
39347;DHT22;26262;49.836;6.632;2023-02-28T17:16:15;4.30;85.20